Time;durP1;ratioP1;P1;durP2;ratioP2;P2;SDS_P1;SDS_P2;PMS_P1;PMS_P2;Temp;Humidity;BMP_temperature;BMP_pressure;BME280_temperature;BME280_humidity;BME280_pressure;Samples;Min_cycle;Max_cycle;Signal;HPM_P1;HPM_P2
2021/10/26 00:01:42;;;;;;;24.05;18.38;;;12.50;99.90;;;;;;5026048;28;20491;-61
2021/10/26 00:04:08;;;;;;;24.40;19.50;;;12.50;99.90;;;;;;5032037;28;20040;-60
2021/10/26 00:06:35;;;;;;;27.08;20.17;;;12.50;99.90;;;;;;5021602;28;20024;-61
2021/10/26 00:09:00;;;;;;;22.88;19.35;;;12.50;99.90;;;;;;5021397;28;20112;-62
2021/10/26 00:11:26;;;;;;;25.40;20.13;;;12.50;99.90;;;;;;5024243;28;20104;-60
2021/10/26 00:13:52;;;;;;;23.77;20.40;;;12.50;99.90;;;;;;5028881;28;20040;-61
2021/10/26 00:16:18;;;;;;;26.45;19.48;;;12.50;99.90;;;;;;5025171;28;20112;-61
2021/10/26 00:18:44;;;;;;;28.63;20.23;;;12.50;99.90;;;;;;5015382;28;20018;-61
2021/10/26 00:21:09;;;;;;;27.60;20.35;;;12.50;99.90;;;;;;5023352;28;20068;-61
2021/10/26 00:23:35;;;;;;;26.92;20.52;;;12.50;99.90;;;;;;5021422;28;20053;-61
2021/10/26 00:26:03;;;;;;;30.75;22.08;;;12.50;99.90;;;;;;5034791;28;20029;-61
2021/10/26 00:28:29;;;;;;;29.73;21.45;;;12.50;99.90;;;;;;5023157;28;20506;-61
2021/10/26 00:30:55;;;;;;;25.20;21.02;;;12.50;99.90;;;;;;5022051;28;20551;-61
2021/10/26 00:33:21;;;;;;;31.23;21.83;;;12.50;99.90;;;;;;5022037;28;20104;-61
2021/10/26 00:35:46;;;;;;;30.05;23.25;;;12.50;99.90;;;;;;5026629;28;20100;-61
2021/10/26 00:38:12;;;;;;;31.55;23.67;;;12.50;99.90;;;;;;5014954;28;20061;-61
2021/10/26 00:40:37;;;;;;;28.08;20.92;;;12.50;99.90;;;;;;5004228;28;20358;-61
2021/10/26 00:43:03;;;;;;;29.02;21.55;;;12.50;99.90;;;;;;5022282;28;20034;-61
2021/10/26 00:45:28;;;;;;;28.17;23.35;;;12.50;99.90;;;;;;5028800;28;20030;-61
2021/10/26 00:47:54;;;;;;;29.52;22.52;;;12.50;99.90;;;;;;5014744;28;20068;-61
2021/10/26 00:50:19;;;;;;;29.42;23.08;;;12.50;99.90;;;;;;5032075;28;20036;-61
2021/10/26 00:52:45;;;;;;;25.63;21.77;;;12.50;99.90;;;;;;5028762;28;20022;-60
2021/10/26 00:55:11;;;;;;;30.98;23.30;;;12.50;99.90;;;;;;5032785;28;20026;-61
2021/10/26 00:57:37;;;;;;;34.17;25.48;;;12.50;99.90;;;;;;5015645;28;20486;-61
2021/10/26 01:00:04;;;;;;;31.42;24.45;;;12.50;99.90;;;;;;5015556;28;20478;-61
2021/10/26 01:02:30;;;;;;;29.17;24.23;;;12.50;99.90;;;;;;5029069;28;20021;-60
2021/10/26 01:04:55;;;;;;;32.25;23.60;;;12.50;99.90;;;;;;5026323;28;20130;-61
2021/10/26 01:07:21;;;;;;;30.27;23.55;;;12.50;99.90;;;;;;5031705;28;20105;-61
2021/10/26 01:09:47;;;;;;;31.02;23.45;;;12.50;99.90;;;;;;5015171;28;20385;-61
2021/10/26 01:12:13;;;;;;;33.40;24.85;;;12.50;99.90;;;;;;5029956;28;20464;-61
2021/10/26 01:14:40;;;;;;;25.98;21.73;;;12.50;99.90;;;;;;5016992;28;20037;-61
2021/10/26 01:17:07;;;;;;;31.10;23.20;;;12.50;99.90;;;;;;5034410;28;20022;-61
2021/10/26 01:19:48;;;;;;;33.67;23.90;;;12.40;99.90;;;;;;5011350;28;20025;-61
2021/10/26 01:22:14;;;;;;;32.70;24.02;;;12.40;99.90;;;;;;5028385;28;20482;-61
2021/10/26 01:24:40;;;;;;;28.50;22.45;;;12.40;99.90;;;;;;5028482;28;20550;-61
2021/10/26 01:27:06;;;;;;;31.65;24.58;;;12.40;99.90;;;;;;5026321;28;20053;-61
2021/10/26 01:29:31;;;;;;;27.52;22.38;;;12.40;99.90;;;;;;5016866;28;20049;-61
2021/10/26 01:31:58;;;;;;;30.63;23.35;;;12.40;99.90;;;;;;5024351;28;20029;-61
2021/10/26 01:34:23;;;;;;;31.42;25.08;;;12.40;99.90;;;;;;5032424;28;20025;-61
2021/10/26 01:36:49;;;;;;;32.63;24.08;;;12.40;99.90;;;;;;5014978;28;20026;-61
2021/10/26 01:39:15;;;;;;;33.65;24.17;;;12.40;99.90;;;;;;5027731;28;20034;-60
2021/10/26 01:41:40;;;;;;;34.40;25.08;;;12.40;99.90;;;;;;5033652;28;20030;-61
2021/10/26 01:44:06;;;;;;;31.75;23.63;;;12.40;99.90;;;;;;5023414;28;20029;-61
2021/10/26 01:46:32;;;;;;;33.58;26.35;;;12.40;99.90;;;;;;5017420;28;20104;-60
2021/10/26 01:48:57;;;;;;;28.23;23.13;;;12.40;99.90;;;;;;5025411;28;20026;-61
2021/10/26 01:51:23;;;;;;;32.63;25.25;;;12.40;99.90;;;;;;5028239;28;20452;-61
2021/10/26 01:53:48;;;;;;;34.25;24.60;;;12.40;99.90;;;;;;5025011;28;20497;-61
2021/10/26 01:56:14;;;;;;;31.50;24.05;;;12.40;99.90;;;;;;5033897;28;20052;-61
2021/10/26 01:58:40;;;;;;;32.72;24.58;;;12.40;99.90;;;;;;5033601;28;20109;-61
2021/10/26 02:01:06;;;;;;;39.72;25.08;;;12.40;99.90;;;;;;5028131;28;20108;-61
2021/10/26 02:03:31;;;;;;;30.75;22.40;;;12.40;99.90;;;;;;5034724;28;20032;-61
2021/10/26 02:05:57;;;;;;;34.30;23.85;;;12.40;99.90;;;;;;5034114;28;20034;-61
2021/10/26 02:08:22;;;;;;;35.03;24.90;;;12.40;99.90;;;;;;5034313;28;20033;-61
2021/10/26 02:10:48;;;;;;;33.22;23.92;;;12.40;99.90;;;;;;5016294;28;20029;-61
2021/10/26 02:13:14;;;;;;;34.47;23.77;;;12.30;99.90;;;;;;5033966;28;20025;-61
2021/10/26 02:15:40;;;;;;;33.33;24.58;;;12.30;99.90;;;;;;5033991;28;20048;-61
2021/10/26 02:18:05;;;;;;;33.90;25.40;;;12.30;99.90;;;;;;5034082;28;20026;-61
2021/10/26 02:20:31;;;;;;;34.97;26.92;;;12.30;99.90;;;;;;5034111;28;20025;-60
2021/10/26 02:22:56;;;;;;;34.15;26.45;;;12.30;99.90;;;;;;5034386;28;20026;-61
2021/10/26 02:25:22;;;;;;;36.00;26.58;;;12.30;99.90;;;;;;5033708;28;20029;-61
2021/10/26 02:27:47;;;;;;;29.98;23.17;;;12.30;99.90;;;;;;5032990;28;20025;-61
2021/10/26 02:30:13;;;;;;;32.70;23.55;;;12.20;99.90;;;;;;5033823;28;20056;-61
2021/10/26 02:32:39;;;;;;;33.40;25.58;;;12.20;99.90;;;;;;5033670;28;20040;-61
2021/10/26 02:35:05;;;;;;;34.20;27.27;;;12.20;99.90;;;;;;5033679;28;20033;-61
2021/10/26 02:37:30;;;;;;;35.08;25.55;;;12.20;99.90;;;;;;5033801;28;20119;-61
2021/10/26 02:39:56;;;;;;;31.75;24.85;;;12.20;99.90;;;;;;5033430;28;20026;-61
2021/10/26 02:42:22;;;;;;;36.67;26.90;;;12.20;99.90;;;;;;5015802;28;20036;-61
2021/10/26 02:44:48;;;;;;;40.15;27.23;;;12.20;99.90;;;;;;5033399;28;20474;-61
2021/10/26 02:47:13;;;;;;;33.90;26.10;;;12.20;99.90;;;;;;5033560;28;20117;-61
2021/10/26 02:49:39;;;;;;;39.58;28.92;;;12.20;99.90;;;;;;5033408;28;20029;-61
2021/10/26 02:52:04;;;;;;;35.08;26.67;;;12.20;99.90;;;;;;5033409;28;20456;-61
2021/10/26 02:54:30;;;;;;;36.25;27.77;;;12.20;99.90;;;;;;5015389;28;20025;-61
2021/10/26 02:56:56;;;;;;;35.90;26.98;;;12.20;99.90;;;;;;5033330;28;20036;-61
2021/10/26 02:59:24;;;;;;;41.33;29.67;;;12.20;99.90;;;;;;5033289;28;20115;-61
2021/10/26 03:01:50;;;;;;;32.97;24.95;;;12.10;99.90;;;;;;5033310;28;20018;-60
2021/10/26 03:04:15;;;;;;;33.28;26.70;;;12.20;99.90;;;;;;5033135;28;20083;-61
2021/10/26 03:06:43;;;;;;;39.92;28.15;;;12.20;99.90;;;;;;5033098;28;20040;-60
2021/10/26 03:09:10;;;;;;;37.88;28.67;;;12.20;99.90;;;;;;5032909;28;20449;-60
2021/10/26 03:11:35;;;;;;;37.90;26.73;;;12.20;99.90;;;;;;5032987;28;20025;-60
2021/10/26 03:14:01;;;;;;;38.42;28.25;;;12.20;99.90;;;;;;5032820;28;20436;-61
2021/10/26 03:16:27;;;;;;;37.45;28.33;;;12.20;99.90;;;;;;5033034;28;20477;-61
2021/10/26 03:18:52;;;;;;;36.95;27.38;;;12.20;99.90;;;;;;5032946;28;20040;-61
2021/10/26 03:21:18;;;;;;;39.20;27.45;;;12.20;99.90;;;;;;5033127;28;20537;-61
2021/10/26 03:23:43;;;;;;;36.92;27.45;;;12.20;99.90;;;;;;5024649;28;20021;-61
2021/10/26 03:26:09;;;;;;;33.13;25.58;;;12.20;99.90;;;;;;5033200;28;20045;-60
2021/10/26 03:28:34;;;;;;;39.78;28.60;;;12.20;99.90;;;;;;5032638;28;20501;-61
2021/10/26 03:31:03;;;;;;;35.88;28.40;;;12.10;99.90;;;;;;5032933;28;20026;-61
2021/10/26 03:33:29;;;;;;;38.87;28.73;;;12.10;99.90;;;;;;5032891;28;20128;-61
2021/10/26 03:35:55;;;;;;;40.83;29.40;;;12.10;99.90;;;;;;5014920;28;20108;-61
2021/10/26 03:38:21;;;;;;;41.83;27.48;;;12.10;99.90;;;;;;5032531;28;20025;-61
2021/10/26 03:40:47;;;;;;;42.28;30.80;;;12.10;99.90;;;;;;5015054;28;20025;-61
2021/10/26 03:43:12;;;;;;;37.75;28.35;;;12.10;99.90;;;;;;5032557;28;20105;-60
2021/10/26 03:45:38;;;;;;;43.28;30.15;;;12.10;99.90;;;;;;5032583;28;20027;-61
2021/10/26 03:48:04;;;;;;;44.08;29.92;;;12.10;99.90;;;;;;5032761;28;20021;-61
2021/10/26 03:50:30;;;;;;;40.90;29.48;;;12.10;99.90;;;;;;5032797;28;20025;-60
2021/10/26 03:53:12;;;;;;;41.17;29.92;;;12.10;99.90;;;;;;5011057;28;20022;-61
2021/10/26 03:55:38;;;;;;;41.22;29.90;;;12.10;99.90;;;;;;5014116;28;20083;-60
2021/10/26 03:58:08;;;;;;;45.92;32.15;;;12.10;99.90;;;;;;5032574;28;20018;-61
2021/10/26 04:00:34;;;;;;;43.28;31.60;;;12.10;99.90;;;;;;5032532;28;20065;-61
2021/10/26 04:03:00;;;;;;;45.55;32.05;;;12.00;99.90;;;;;;5032488;28;20024;-60
2021/10/26 04:05:39;;;;;;;46.85;33.92;;;12.00;99.90;;;;;;5032549;28;20440;-61
2021/10/26 04:08:19;;;;;;;51.08;34.45;;;12.00;99.90;;;;;;5032959;28;20025;-61
2021/10/26 04:10:49;;;;;;;40.80;30.92;;;12.00;99.90;;;;;;5032483;28;20032;-60
2021/10/26 04:13:14;;;;;;;40.63;30.00;;;12.00;99.90;;;;;;5032372;28;20049;-60
2021/10/26 04:15:40;;;;;;;41.10;30.13;;;12.00;99.90;;;;;;5032091;28;20456;-61
2021/10/26 04:18:06;;;;;;;42.95;29.55;;;12.00;99.90;;;;;;5014517;28;20022;-60
2021/10/26 04:20:31;;;;;;;45.22;29.95;;;12.00;99.90;;;;;;5032423;28;20026;-60
2021/10/26 04:22:57;;;;;;;43.85;31.58;;;12.00;99.90;;;;;;5031814;28;20151;-60
2021/10/26 04:25:23;;;;;;;44.85;32.13;;;12.00;99.90;;;;;;5014133;28;20036;-60
2021/10/26 04:27:49;;;;;;;42.42;31.15;;;12.00;99.90;;;;;;5013747;28;20076;-60
2021/10/26 04:30:15;;;;;;;41.50;30.20;;;12.00;99.90;;;;;;5032553;28;20505;-60
2021/10/26 04:32:40;;;;;;;49.80;30.55;;;12.10;99.90;;;;;;5032301;28;20033;-61
2021/10/26 04:35:06;;;;;;;41.40;30.13;;;12.10;99.90;;;;;;5032240;28;20029;-61
2021/10/26 04:37:32;;;;;;;43.90;30.02;;;12.10;99.90;;;;;;5014469;28;20397;-61
2021/10/26 04:39:58;;;;;;;43.78;29.83;;;12.10;99.90;;;;;;5032128;28;20029;-61
2021/10/26 04:42:23;;;;;;;39.53;28.48;;;12.10;99.90;;;;;;5032211;28;20018;-61
2021/10/26 04:44:49;;;;;;;40.72;29.52;;;12.10;99.90;;;;;;5031785;28;20525;-61
2021/10/26 04:47:33;;;;;;;;;;;;;;;;;;;;;
2021/10/26 04:49:58;;;;;;;39.47;28.13;;;12.10;99.90;;;;;;5031940;28;20040;-61
2021/10/26 04:52:24;;;;;;;44.17;30.83;;;12.10;99.90;;;;;;5035357;28;20436;-61
2021/10/26 04:54:49;;;;;;;44.83;32.50;;;12.10;99.90;;;;;;5035237;28;20497;-61
2021/10/26 04:57:15;;;;;;;45.92;31.40;;;12.10;99.90;;;;;;5035703;28;20035;-61
2021/10/26 04:59:41;;;;;;;47.72;32.83;;;12.10;99.90;;;;;;5017478;28;20390;-61
2021/10/26 05:02:07;;;;;;;42.25;31.00;;;12.10;99.90;;;;;;5035585;28;20032;-61
2021/10/26 05:04:32;;;;;;;43.63;31.40;;;12.10;99.90;;;;;;5035544;28;20112;-60
2021/10/26 05:06:58;;;;;;;44.17;31.40;;;12.10;99.90;;;;;;5035386;28;20120;-60
2021/10/26 05:09:24;;;;;;;41.00;30.92;;;12.10;99.90;;;;;;5035365;28;20052;-61
2021/10/26 05:11:50;;;;;;;45.08;32.50;;;12.10;99.90;;;;;;5035231;28;20036;-61
2021/10/26 05:14:15;;;;;;;46.67;31.92;;;12.10;99.90;;;;;;5017285;28;20033;-61
2021/10/26 05:16:43;;;;;;;49.95;33.10;;;12.00;99.90;;;;;;5035039;28;20051;-61
2021/10/26 05:19:09;;;;;;;47.58;32.88;;;12.00;99.90;;;;;;5035417;28;20108;-60
2021/10/26 05:21:35;;;;;;;55.03;35.47;;;12.00;99.90;;;;;;5035211;28;20096;-61
2021/10/26 05:24:01;;;;;;;45.00;31.67;;;11.90;99.90;;;;;;5035019;28;20029;-61
2021/10/26 05:26:26;;;;;;;48.35;32.45;;;11.90;99.90;;;;;;5016320;28;20045;-60
2021/10/26 05:28:53;;;;;;;48.80;33.13;;;11.90;99.90;;;;;;5034404;28;20057;-61
2021/10/26 05:31:19;;;;;;;46.65;32.95;;;11.90;99.90;;;;;;5034445;28;20095;-61
2021/10/26 05:33:45;;;;;;;45.70;33.45;;;11.90;99.90;;;;;;5016973;28;20488;-61
2021/10/26 05:36:12;;;;;;;44.38;31.15;;;11.90;99.90;;;;;;5034775;28;20485;-61
2021/10/26 05:38:38;;;;;;;46.17;31.23;;;11.90;99.90;;;;;;5017025;28;20539;-61
2021/10/26 05:41:04;;;;;;;52.40;33.13;;;11.90;99.90;;;;;;5034572;28;20035;-61
2021/10/26 05:43:30;;;;;;;50.50;33.30;;;11.90;99.90;;;;;;5016225;28;20123;-61
2021/10/26 05:45:56;;;;;;;42.70;32.70;;;11.90;99.90;;;;;;5032418;28;21384;-61
2021/10/26 05:48:22;;;;;;;48.00;34.65;;;11.90;99.90;;;;;;5032490;28;20010;-61
2021/10/26 05:50:47;;;;;;;55.03;35.95;;;11.90;99.90;;;;;;5028236;28;20029;-61
2021/10/26 05:53:47;;;;;;;49.15;32.92;;;11.90;99.90;;;;;;4999451;28;20017;-61
2021/10/26 05:56:12;;;;;;;49.72;31.83;;;11.90;99.90;;;;;;5003420;28;20022;-60
2021/10/26 05:58:38;;;;;;;49.83;32.80;;;11.80;99.90;;;;;;5017988;28;20162;-60
2021/10/26 06:01:24;;;;;;;;;;;;;;;;;;;;;
2021/10/26 06:04:02;;;;;;;46.45;30.90;;;11.80;99.90;;;;;;5019800;28;20018;-60
2021/10/26 06:07:05;;;;;;;49.88;33.15;;;11.80;99.90;;;;;;5008844;28;20029;-61
2021/10/26 06:09:34;;;;;;;47.45;32.50;;;11.80;99.90;;;;;;5021970;28;20034;-61
2021/10/26 06:12:01;;;;;;;44.65;29.83;;;11.80;99.90;;;;;;5022172;28;20029;-61
2021/10/26 06:14:27;;;;;;;49.60;33.17;;;11.80;99.90;;;;;;5006246;28;20068;-61
2021/10/26 06:16:54;;;;;;;49.63;32.30;;;11.80;99.90;;;;;;5022881;28;20389;-61
2021/10/26 06:19:20;;;;;;;47.65;31.67;;;11.80;99.90;;;;;;5018921;28;20105;-61
2021/10/26 06:22:16;;;;;;;53.85;33.10;;;11.70;99.90;;;;;;5021830;28;20112;-61
2021/10/26 06:28:15;;;;;;;47.35;28.90;;;11.70;99.90;;;;;;4947496;29;20129;-61
2021/10/26 06:30:41;;;;;;;47.85;31.13;;;11.60;99.90;;;;;;5012979;28;20026;-61
2021/10/26 06:33:07;;;;;;;57.13;34.80;;;11.70;99.90;;;;;;5002248;28;20018;-61
2021/10/26 06:35:33;;;;;;;54.53;34.47;;;11.70;99.90;;;;;;5016619;28;20109;-61
2021/10/26 06:37:58;;;;;;;54.80;37.47;;;11.60;99.90;;;;;;5011860;28;20473;-61
2021/10/26 06:40:25;;;;;;;57.20;35.05;;;11.60;99.90;;;;;;5000285;28;20117;-61
2021/10/26 06:42:50;;;;;;;66.25;39.38;;;11.60;99.90;;;;;;5021425;28;20044;-61
2021/10/26 06:45:16;;;;;;;65.45;36.97;;;11.60;99.90;;;;;;5021468;28;20021;-61
2021/10/26 06:48:05;;;;;;;;;;;;;;;;;;;;;
2021/10/26 06:54:51;;;;;;;60.20;36.17;;;11.50;99.90;;;;;;5013785;28;20172;-61
2021/10/26 06:57:19;;;;;;;64.30;37.47;;;11.50;99.90;;;;;;5009953;28;20146;-61
2021/10/26 07:00:23;;;;;;;55.67;33.92;;;11.40;99.90;;;;;;4997564;28;20022;-61
2021/10/26 07:02:52;;;;;;;62.08;34.42;;;11.40;99.90;;;;;;5015973;28;20462;-61
2021/10/26 07:05:22;;;;;;;58.15;35.03;;;11.40;99.90;;;;;;5013523;28;20068;-61
2021/10/26 07:07:48;;;;;;;68.30;36.33;;;11.40;99.90;;;;;;5015904;28;20030;-61
2021/10/26 07:10:15;;;;;;;60.10;35.10;;;11.40;99.90;;;;;;4998182;28;20036;-61
2021/10/26 07:12:58;;;;;;;;;;;;;;;;;;;;;
2021/10/26 07:15:28;;;;;;;65.38;36.55;;;11.50;99.90;;;;;;5007688;28;20100;-60
2021/10/26 07:17:54;;;;;;;56.13;33.22;;;11.50;99.90;;;;;;5030092;28;20063;-61
2021/10/26 07:20:19;;;;;;;60.85;36.15;;;11.50;99.90;;;;;;5028444;28;20065;-60
2021/10/26 07:22:53;;;;;;;66.97;37.75;;;11.50;99.90;;;;;;5022226;28;20448;-60
2021/10/26 07:25:20;;;;;;;57.78;36.67;;;11.60;99.90;;;;;;5018737;28;20453;-60
2021/10/26 07:27:47;;;;;;;65.35;35.83;;;11.50;99.90;;;;;;4987648;28;20024;-60
2021/10/26 07:30:13;;;;;;;55.63;33.25;;;11.50;99.90;;;;;;5020040;28;20355;-60
2021/10/26 07:32:40;;;;;;;52.30;33.22;;;11.60;99.90;;;;;;5000234;28;20113;-60
2021/10/26 07:35:07;;;;;;;54.40;33.63;;;11.60;99.90;;;;;;5000649;28;20029;-61
2021/10/26 07:37:37;;;;;;;52.85;32.40;;;11.60;99.90;;;;;;5016007;28;20105;-61
2021/10/26 07:42:54;;;;;;;57.47;33.30;;;11.60;99.90;;;;;;4992940;28;20232;-61
2021/10/26 07:45:20;;;;;;;63.13;35.58;;;11.60;99.90;;;;;;5016001;28;20026;-61
2021/10/26 07:47:50;;;;;;;54.63;34.50;;;11.60;99.90;;;;;;5020785;28;20022;-61
2021/10/26 07:50:16;;;;;;;57.33;32.47;;;11.60;99.90;;;;;;5000937;28;20091;-61
2021/10/26 07:53:06;;;;;;;51.75;31.95;;;11.60;99.90;;;;;;5017748;28;20030;-61
2021/10/26 07:55:32;;;;;;;51.10;32.78;;;11.70;99.90;;;;;;4999102;28;20096;-61
2021/10/26 07:57:57;;;;;;;55.88;35.58;;;11.70;99.90;;;;;;5018124;28;20486;-61
2021/10/26 08:04:07;;;;;;;54.22;34.15;;;11.80;99.90;;;;;;4930040;29;20140;-61
2021/10/26 08:06:32;;;;;;;61.95;35.75;;;11.80;99.90;;;;;;4922562;29;20144;-61
2021/10/26 08:13:11;;;;;;;57.90;34.53;;;11.80;99.90;;;;;;4993747;28;20385;-61
2021/10/26 08:19:02;;;;;;;62.40;38.05;;;11.70;99.90;;;;;;4967245;28;20037;-61
2021/10/26 08:21:28;;;;;;;69.28;41.55;;;11.80;99.90;;;;;;5005987;28;20426;-61
2021/10/26 08:23:55;;;;;;;60.35;38.20;;;11.80;99.90;;;;;;5024157;28;20036;-61
2021/10/26 08:26:45;;;;;;;65.03;37.78;;;11.70;99.90;;;;;;5022901;28;20020;-61
2021/10/26 08:29:15;;;;;;;60.33;37.03;;;11.70;99.90;;;;;;5024489;28;20444;-61
2021/10/26 08:37:13;;;;;;;61.90;37.60;;;11.70;99.90;;;;;;5023812;28;20025;-62
2021/10/26 08:39:41;;;;;;;58.58;36.80;;;11.70;99.90;;;;;;5019967;28;20027;-62
2021/10/26 08:42:20;;;;;;;49.78;31.55;;;11.70;99.90;;;;;;5018484;28;21644;-61
2021/10/26 08:44:47;;;;;;;48.05;30.58;;;11.80;99.90;;;;;;5010552;28;20080;-61
2021/10/26 08:47:15;;;;;;;50.50;30.90;;;11.80;99.90;;;;;;5020320;28;20049;-61
2021/10/26 08:49:45;;;;;;;46.83;30.40;;;11.90;99.90;;;;;;5021996;28;20022;-61
2021/10/26 08:52:10;;;;;;;;;;;12.00;99.90;;;;;;5007396;28;20018;-61
2021/10/26 08:54:36;;;;;;;39.25;26.30;;;12.00;99.90;;;;;;5023716;28;20372;-61
2021/10/26 09:07:18;;;;;;;26.77;19.20;;;12.30;99.90;;;;;;4813079;29;20090;-61
2021/10/26 09:09:44;;;;;;;31.25;19.05;;;12.40;99.90;;;;;;5035177;28;20034;-61
2021/10/26 09:17:55;;;;;;;24.17;16.13;;;12.60;99.90;;;;;;5035330;28;20125;-61
2021/10/26 09:20:23;;;;;;;26.27;16.63;;;12.70;99.90;;;;;;5034892;28;20025;-61
2021/10/26 09:22:51;;;;;;;26.13;16.65;;;12.70;99.90;;;;;;5035037;28;20116;-61
2021/10/26 09:28:55;;;;;;;24.15;17.92;;;12.80;99.90;;;;;;5014652;28;20516;-61
2021/10/26 09:31:26;;;;;;;29.55;18.55;;;12.80;99.90;;;;;;5017261;28;20029;-61
2021/10/26 09:34:04;;;;;;;25.70;18.08;;;12.80;99.90;;;;;;5034554;28;20389;-61
2021/10/26 09:36:39;;;;;;;26.63;17.50;;;12.70;99.90;;;;;;5034127;28;20033;-61
2021/10/26 09:39:10;;;;;;;24.83;18.10;;;12.70;99.90;;;;;;5013848;28;20367;-61
2021/10/26 09:42:18;;;;;;;26.90;18.73;;;12.80;99.90;;;;;;5031711;28;20018;-61
2021/10/26 09:44:47;;;;;;;25.02;16.13;;;12.70;99.90;;;;;;5016778;28;20051;-61
2021/10/26 09:47:25;;;;;;;24.23;15.75;;;12.70;99.90;;;;;;5034518;28;20026;-61
2021/10/26 09:49:59;;;;;;;26.73;16.60;;;12.80;99.90;;;;;;5016803;28;20026;-61
2021/10/26 09:52:47;;;;;;;26.88;16.60;;;12.70;99.90;;;;;;5034752;28;20029;-61
2021/10/26 09:55:28;;;;;;;23.58;15.25;;;12.80;99.90;;;;;;5014738;28;20029;-61
2021/10/26 09:57:57;;;;;;;23.67;16.02;;;12.80;99.90;;;;;;5032667;28;20418;-61
2021/10/26 10:00:29;;;;;;;19.95;14.50;;;12.80;99.90;;;;;;5034449;28;20477;-61
2021/10/26 10:03:06;;;;;;;27.23;17.17;;;12.80;99.90;;;;;;5034143;28;20320;-61
2021/10/26 10:05:36;;;;;;;27.45;17.40;;;12.80;99.90;;;;;;5016636;28;20036;-61
2021/10/26 10:08:20;;;;;;;23.85;15.80;;;12.80;99.90;;;;;;5016267;28;20025;-61
2021/10/26 10:11:09;;;;;;;25.55;16.92;;;12.80;99.90;;;;;;5033774;28;20390;-61
2021/10/26 10:13:37;;;;;;;26.17;16.08;;;12.80;99.90;;;;;;5000715;28;20033;-61
2021/10/26 10:16:20;;;;;;;28.70;16.92;;;12.80;99.90;;;;;;5032958;28;20034;-61
2021/10/26 10:18:47;;;;;;;23.08;14.90;;;12.90;99.90;;;;;;5016185;28;20057;-61
2021/10/26 10:21:16;;;;;;;27.15;17.25;;;13.00;99.90;;;;;;5029762;28;20104;-61
2021/10/26 10:23:45;;;;;;;20.75;14.50;;;13.00;99.90;;;;;;5024406;28;20378;-61
2021/10/26 10:26:16;;;;;;;26.02;17.50;;;13.00;99.90;;;;;;5029484;28;20071;-61
2021/10/26 10:28:48;;;;;;;23.60;14.77;;;13.00;99.90;;;;;;5021555;28;20052;-61
2021/10/26 10:31:16;;;;;;;22.33;15.63;;;13.10;99.90;;;;;;5028580;28;20033;-62
2021/10/26 10:33:48;;;;;;;22.77;15.63;;;13.10;99.90;;;;;;5023349;28;20084;-62
2021/10/26 10:36:18;;;;;;;21.63;16.17;;;13.10;99.90;;;;;;5029834;28;20119;-61
2021/10/26 10:38:44;;;;;;;21.95;15.35;;;13.10;99.90;;;;;;5033395;28;20440;-61
2021/10/26 10:41:32;;;;;;;21.30;15.98;;;13.10;99.90;;;;;;5022226;28;20022;-62
2021/10/26 10:44:19;;;;;;;21.65;15.10;;;13.20;99.90;;;;;;5015570;28;20077;-62
2021/10/26 10:46:47;;;;;;;24.02;16.40;;;13.30;99.90;;;;;;5019002;28;20036;-61
2021/10/26 10:49:19;;;;;;;22.15;15.02;;;13.20;99.90;;;;;;5012927;28;20080;-61
2021/10/26 10:52:05;;;;;;;23.35;16.17;;;13.30;99.90;;;;;;5021967;28;20025;-61
2021/10/26 10:57:30;;;;;;;29.05;17.83;;;13.30;99.90;;;;;;5033124;28;20540;-61
2021/10/26 10:59:58;;;;;;;23.98;16.80;;;13.30;99.90;;;;;;5032659;28;20243;-61
2021/10/26 11:02:44;;;;;;;24.73;16.55;;;13.30;99.90;;;;;;5033498;28;20017;-61
2021/10/26 11:05:36;;;;;;;25.92;16.08;;;13.40;99.90;;;;;;5015449;28;20028;-61
2021/10/26 11:08:06;;;;;;;23.98;16.83;;;13.40;99.90;;;;;;5032938;28;20409;-61
2021/10/26 11:10:49;;;;;;;25.75;16.67;;;13.50;99.90;;;;;;5014832;28;20036;-61
2021/10/26 11:13:20;;;;;;;26.60;16.17;;;13.60;99.90;;;;;;4999249;28;20027;-61
2021/10/26 11:15:48;;;;;;;22.52;14.88;;;13.60;99.90;;;;;;5028508;28;20816;-61
2021/10/26 11:18:49;;;;;;;22.95;16.45;;;13.70;99.70;;;;;;5008869;28;20129;-62
2021/10/26 11:21:36;;;;;;;27.67;15.90;;;13.90;99.60;;;;;;5020809;28;20033;-62
2021/10/26 11:27:35;;;;;;;23.65;15.40;;;14.30;98.70;;;;;;5025021;28;20030;-62
2021/10/26 11:30:20;;;;;;;25.08;15.48;;;14.50;98.40;;;;;;5026606;28;20042;-62
2021/10/26 11:32:45;;;;;;;24.08;13.27;;;14.70;97.80;;;;;;5022783;28;20025;-61
2021/10/26 11:35:18;;;;;;;18.73;12.18;;;15.00;97.30;;;;;;5023333;28;20025;-61
2021/10/26 11:37:43;;;;;;;20.98;12.52;;;15.50;97.20;;;;;;5021579;28;20028;-61
2021/10/26 11:40:09;;;;;;;17.63;10.48;;;16.10;95.60;;;;;;5010062;28;20029;-61
2021/10/26 11:42:36;;;;;;;15.82;10.23;;;16.30;94.80;;;;;;5027968;28;20026;-62
2021/10/26 11:45:08;;;;;;;13.18;8.82;;;16.40;94.30;;;;;;5007876;28;20083;-61
2021/10/26 11:47:42;;;;;;;13.07;8.32;;;16.50;93.80;;;;;;5004132;28;20024;-61
2021/10/26 11:50:07;;;;;;;15.68;8.48;;;16.60;93.50;;;;;;5029143;28;20029;-61
2021/10/26 11:52:37;;;;;;;13.80;8.48;;;16.50;93.10;;;;;;5025278;28;20033;-61
2021/10/26 11:55:02;;;;;;;15.40;7.93;;;16.30;93.10;;;;;;5027875;28;20140;-62
2021/10/26 11:57:29;;;;;;;18.85;8.30;;;16.30;93.70;;;;;;5024940;28;20108;-61
2021/10/26 12:00:20;;;;;;;15.18;7.47;;;17.20;92.90;;;;;;5026632;28;20021;-62
2021/10/26 12:06:49;;;;;;;13.15;6.95;;;18.30;89.90;;;;;;4994459;28;20029;-62
2021/10/26 12:09:16;;;;;;;11.10;7.25;;;17.70;89.50;;;;;;5009422;28;20048;-62
2021/10/26 12:11:45;;;;;;;14.00;5.97;;;17.30;90.40;;;;;;5020417;28;20022;-62
2021/10/26 12:14:21;;;;;;;13.27;6.65;;;17.30;90.90;;;;;;5026428;28;20501;-62
2021/10/26 12:17:08;;;;;;;13.82;6.65;;;17.30;90.80;;;;;;5024176;28;20036;-62
2021/10/26 12:19:35;;;;;;;11.60;6.55;;;17.60;90.60;;;;;;5017019;28;20425;-62
2021/10/26 12:22:00;;;;;;;13.23;6.60;;;17.60;90.20;;;;;;5021710;28;20449;-61
2021/10/26 12:24:29;;;;;;;12.85;6.28;;;17.40;90.00;;;;;;5025878;28;20049;-62
2021/10/26 12:27:07;;;;;;;12.57;5.90;;;17.00;90.30;;;;;;5018270;28;20080;-61
2021/10/26 12:29:38;;;;;;;11.15;5.40;;;16.90;90.70;;;;;;5007617;28;20045;-61
2021/10/26 12:32:08;;;;;;;12.02;5.53;;;17.20;90.70;;;;;;5036097;28;20036;-62
2021/10/26 12:34:43;;;;;;;12.80;6.20;;;17.30;90.20;;;;;;5035827;28;20508;-62
2021/10/26 12:37:31;;;;;;;12.25;5.97;;;17.10;90.10;;;;;;5032217;28;20068;-61
2021/10/26 12:40:02;;;;;;;11.52;6.00;;;16.80;90.50;;;;;;5033868;28;20481;-61
2021/10/26 12:42:43;;;;;;;12.23;5.90;;;16.60;90.70;;;;;;5035997;28;20385;-61
2021/10/26 12:45:15;;;;;;;9.70;5.70;;;16.40;91.10;;;;;;5035750;28;20076;-61
2021/10/26 12:48:09;;;;;;;11.27;5.55;;;16.20;91.50;;;;;;5028594;28;20026;-62
2021/10/26 12:51:08;;;;;;;;;;;;;;;;;;;;;
2021/10/26 12:53:38;;;;;;;14.90;5.22;;;15.90;92.10;;;;;;5025544;28;20107;-61
2021/10/26 12:56:24;;;;;;;12.95;5.13;;;15.90;92.20;;;;;;5015679;28;20061;-61
2021/10/26 12:58:55;;;;;;;6.45;4.15;;;15.90;92.30;;;;;;5015799;28;20037;-61
2021/10/26 13:01:25;;;;;;;9.73;5.05;;;15.90;92.30;;;;;;5015689;28;20025;-61
2021/10/26 13:03:58;;;;;;;13.25;4.93;;;15.80;92.30;;;;;;5015476;28;20068;-62
2021/10/26 13:06:35;;;;;;;10.00;5.35;;;15.80;92.00;;;;;;5015954;28;20058;-61
2021/10/26 13:09:04;;;;;;;8.45;4.55;;;15.90;92.10;;;;;;4981115;28;20096;-61
2021/10/26 13:11:31;;;;;;;12.20;4.40;;;15.80;92.30;;;;;;4997183;28;20018;-61
2021/10/26 13:14:06;;;;;;;9.75;4.32;;;15.80;92.40;;;;;;5015404;28;20069;-61
2021/10/26 13:16:40;;;;;;;6.15;3.85;;;15.80;92.10;;;;;;5007110;28;20026;-61
2021/10/26 13:19:19;;;;;;;8.60;4.43;;;15.70;91.90;;;;;;5014146;28;20030;-61
2021/10/26 13:21:50;;;;;;;9.60;4.20;;;15.70;91.90;;;;;;5027663;28;20025;-61
2021/10/26 13:24:20;;;;;;;9.55;5.50;;;15.60;92.10;;;;;;5034212;28;20036;-62
2021/10/26 13:26:50;;;;;;;8.32;3.90;;;15.60;92.40;;;;;;5013310;28;20026;-61
2021/10/26 13:29:16;;;;;;;6.53;4.00;;;15.50;92.40;;;;;;5029898;28;20144;-61
2021/10/26 13:31:43;;;;;;;7.75;3.70;;;15.50;92.40;;;;;;5013258;28;20062;-61
2021/10/26 13:34:09;;;;;;;12.05;4.25;;;15.50;92.50;;;;;;5020293;28;20033;-61
2021/10/26 13:36:39;;;;;;;7.07;3.70;;;15.50;92.70;;;;;;5023681;28;20026;-61
2021/10/26 13:39:07;;;;;;;10.68;4.13;;;15.50;92.70;;;;;;5020283;28;20033;-61
2021/10/26 13:41:41;;;;;;;7.57;4.63;;;15.50;92.60;;;;;;5020641;28;20017;-61
2021/10/26 13:44:07;;;;;;;8.68;3.53;;;15.50;92.50;;;;;;5023219;28;20018;-61
2021/10/26 13:49:33;;;;;;;7.57;3.78;;;15.40;92.30;;;;;;5033067;28;20017;-62